sensor_id;sensor_type;location;lat;lon;timestamp;P1;durP1;ratioP1;P2;durP2;ratioP2
27822;SDS011;29019;47.630;8.262;2023-06-24T00:00:53;0.50;;;0.50;;
27822;SDS011;29019;47.630;8.262;2023-06-24T00:04:53;0.50;;;0.50;;
27822;SDS011;29019;47.630;8.262;2023-06-24T00:08:54;0.60;;;0.60;;
27822;SDS011;29019;47.630;8.262;2023-06-24T00:13:00;0.52;;;0.52;;
27822;SDS011;29019;47.630;8.262;2023-06-24T00:17:02;0.52;;;0.52;;
27822;SDS011;29019;47.630;8.262;2023-06-24T00:21:03;0.43;;;0.43;;
27822;SDS011;29019;47.630;8.262;2023-06-24T00:25:03;0.50;;;0.50;;
27822;SDS011;29019;47.630;8.262;2023-06-24T00:29:05;0.55;;;0.55;;
27822;SDS011;29019;47.630;8.262;2023-06-24T00:33:06;0.52;;;0.52;;
27822;SDS011;29019;47.630;8.262;2023-06-24T00:37:09;0.60;;;0.60;;
27822;SDS011;29019;47.630;8.262;2023-06-24T00:41:10;0.57;;;0.57;;
27822;SDS011;29019;47.630;8.262;2023-06-24T00:45:11;0.70;;;0.70;;
27822;SDS011;29019;47.630;8.262;2023-06-24T00:49:12;0.40;;;0.40;;
27822;SDS011;29019;47.630;8.262;2023-06-24T00:53:15;0.82;;;0.60;;
27822;SDS011;29019;47.630;8.262;2023-06-24T00:57:17;1.20;;;0.60;;
27822;SDS011;29019;47.630;8.262;2023-06-24T01:01:19;0.57;;;0.57;;
27822;SDS011;29019;47.630;8.262;2023-06-24T01:05:21;0.50;;;0.50;;
27822;SDS011;29019;47.630;8.262;2023-06-24T01:09:23;0.57;;;0.55;;
27822;SDS011;29019;47.630;8.262;2023-06-24T01:13:24;0.57;;;0.50;;
27822;SDS011;29019;47.630;8.262;2023-06-24T01:22:07;0.60;;;0.60;;
27822;SDS011;29019;47.630;8.262;2023-06-24T01:34:57;0.50;;;0.50;;
27822;SDS011;29019;47.630;8.262;2023-06-24T01:39:09;0.50;;;0.50;;
27822;SDS011;29019;47.630;8.262;2023-06-24T01:43:12;0.52;;;0.50;;
27822;SDS011;29019;47.630;8.262;2023-06-24T01:47:14;0.50;;;0.50;;
27822;SDS011;29019;47.630;8.262;2023-06-24T01:51:22;0.60;;;0.55;;
27822;SDS011;29019;47.630;8.262;2023-06-24T01:55:24;0.50;;;0.43;;
27822;SDS011;29019;47.630;8.262;2023-06-24T01:59:28;0.75;;;0.60;;
27822;SDS011;29019;47.630;8.262;2023-06-24T02:03:30;0.60;;;0.60;;
27822;SDS011;29019;47.630;8.262;2023-06-24T02:07:32;0.50;;;0.50;;
27822;SDS011;29019;47.630;8.262;2023-06-24T02:15:35;0.50;;;0.50;;
27822;SDS011;29019;47.630;8.262;2023-06-24T02:19:38;0.45;;;0.45;;
27822;SDS011;29019;47.630;8.262;2023-06-24T02:27:40;0.50;;;0.50;;
27822;SDS011;29019;47.630;8.262;2023-06-24T02:31:42;0.52;;;0.50;;
27822;SDS011;29019;47.630;8.262;2023-06-24T02:35:43;0.65;;;0.60;;
27822;SDS011;29019;47.630;8.262;2023-06-24T02:39:45;0.57;;;0.55;;
27822;SDS011;29019;47.630;8.262;2023-06-24T02:43:46;0.50;;;0.50;;
27822;SDS011;29019;47.630;8.262;2023-06-24T02:47:46;0.65;;;0.65;;
27822;SDS011;29019;47.630;8.262;2023-06-24T02:51:48;0.73;;;0.60;;
27822;SDS011;29019;47.630;8.262;2023-06-24T02:55:49;0.57;;;0.57;;
27822;SDS011;29019;47.630;8.262;2023-06-24T02:59:51;0.60;;;0.60;;
27822;SDS011;29019;47.630;8.262;2023-06-24T03:03:53;0.60;;;0.60;;
27822;SDS011;29019;47.630;8.262;2023-06-24T03:07:54;0.57;;;0.57;;
27822;SDS011;29019;47.630;8.262;2023-06-24T03:11:56;0.60;;;0.60;;
27822;SDS011;29019;47.630;8.262;2023-06-24T03:15:57;0.55;;;0.55;;
27822;SDS011;29019;47.630;8.262;2023-06-24T03:19:58;0.60;;;0.60;;
27822;SDS011;29019;47.630;8.262;2023-06-24T03:23:59;0.50;;;0.50;;
27822;SDS011;29019;47.630;8.262;2023-06-24T03:28:00;0.63;;;0.63;;
27822;SDS011;29019;47.630;8.262;2023-06-24T03:36:02;0.60;;;0.60;;
27822;SDS011;29019;47.630;8.262;2023-06-24T03:40:03;0.50;;;0.50;;
27822;SDS011;29019;47.630;8.262;2023-06-24T03:48:05;0.93;;;0.93;;
27822;SDS011;29019;47.630;8.262;2023-06-24T03:52:05;0.60;;;0.60;;
27822;SDS011;29019;47.630;8.262;2023-06-24T03:56:08;0.68;;;0.60;;
27822;SDS011;29019;47.630;8.262;2023-06-24T04:00:09;0.50;;;0.50;;
27822;SDS011;29019;47.630;8.262;2023-06-24T04:04:15;0.57;;;0.57;;
27822;SDS011;29019;47.630;8.262;2023-06-24T04:08:16;0.88;;;0.73;;
27822;SDS011;29019;47.630;8.262;2023-06-24T04:12:17;0.70;;;0.70;;
27822;SDS011;29019;47.630;8.262;2023-06-24T04:16:18;0.70;;;0.68;;
27822;SDS011;29019;47.630;8.262;2023-06-24T04:20:18;1.00;;;0.60;;
27822;SDS011;29019;47.630;8.262;2023-06-24T04:24:19;0.70;;;0.70;;
27822;SDS011;29019;47.630;8.262;2023-06-24T04:32:21;0.57;;;0.57;;
27822;SDS011;29019;47.630;8.262;2023-06-24T04:36:21;0.60;;;0.60;;
27822;SDS011;29019;47.630;8.262;2023-06-24T04:40:22;0.82;;;0.75;;
27822;SDS011;29019;47.630;8.262;2023-06-24T04:44:22;1.02;;;0.90;;
27822;SDS011;29019;47.630;8.262;2023-06-24T04:48:23;0.60;;;0.60;;
27822;SDS011;29019;47.630;8.262;2023-06-24T04:56:25;0.50;;;0.50;;
27822;SDS011;29019;47.630;8.262;2023-06-24T05:00:25;0.60;;;0.60;;
27822;SDS011;29019;47.630;8.262;2023-06-24T05:04:26;0.60;;;0.60;;
27822;SDS011;29019;47.630;8.262;2023-06-24T05:08:27;0.82;;;0.80;;
27822;SDS011;29019;47.630;8.262;2023-06-24T05:12:27;0.80;;;0.68;;
27822;SDS011;29019;47.630;8.262;2023-06-24T05:16:28;0.82;;;0.70;;
27822;SDS011;29019;47.630;8.262;2023-06-24T05:20:29;0.63;;;0.60;;
27822;SDS011;29019;47.630;8.262;2023-06-24T05:24:29;0.63;;;0.63;;
27822;SDS011;29019;47.630;8.262;2023-06-24T05:28:30;0.75;;;0.60;;
27822;SDS011;29019;47.630;8.262;2023-06-24T05:32:31;0.70;;;0.70;;
27822;SDS011;29019;47.630;8.262;2023-06-24T05:36:31;0.90;;;0.73;;
27822;SDS011;29019;47.630;8.262;2023-06-24T05:40:32;0.63;;;0.63;;
27822;SDS011;29019;47.630;8.262;2023-06-24T05:44:33;0.63;;;0.57;;
27822;SDS011;29019;47.630;8.262;2023-06-24T05:48:35;0.60;;;0.60;;
27822;SDS011;29019;47.630;8.262;2023-06-24T05:52:35;0.90;;;0.88;;
27822;SDS011;29019;47.630;8.262;2023-06-24T05:56:36;0.82;;;0.73;;
27822;SDS011;29019;47.630;8.262;2023-06-24T06:00:37;0.50;;;0.50;;
27822;SDS011;29019;47.630;8.262;2023-06-24T06:04:38;0.45;;;0.43;;
27822;SDS011;29019;47.630;8.262;2023-06-24T06:12:39;0.70;;;0.70;;
27822;SDS011;29019;47.630;8.262;2023-06-24T06:16:40;0.50;;;0.50;;
27822;SDS011;29019;47.630;8.262;2023-06-24T06:20:41;0.60;;;0.60;;
27822;SDS011;29019;47.630;8.262;2023-06-24T06:24:41;0.60;;;0.60;;
27822;SDS011;29019;47.630;8.262;2023-06-24T06:28:42;0.55;;;0.45;;
27822;SDS011;29019;47.630;8.262;2023-06-24T06:32:42;0.60;;;0.55;;
27822;SDS011;29019;47.630;8.262;2023-06-24T06:36:43;0.40;;;0.40;;
27822;SDS011;29019;47.630;8.262;2023-06-24T06:40:44;0.63;;;0.63;;
27822;SDS011;29019;47.630;8.262;2023-06-24T06:44:44;0.80;;;0.80;;
27822;SDS011;29019;47.630;8.262;2023-06-24T06:48:45;0.60;;;0.60;;
27822;SDS011;29019;47.630;8.262;2023-06-24T06:52:46;0.50;;;0.50;;
27822;SDS011;29019;47.630;8.262;2023-06-24T06:56:46;0.63;;;0.60;;
27822;SDS011;29019;47.630;8.262;2023-06-24T07:00:47;0.60;;;0.60;;
27822;SDS011;29019;47.630;8.262;2023-06-24T07:04:47;0.60;;;0.60;;
27822;SDS011;29019;47.630;8.262;2023-06-24T07:08:50;0.60;;;0.50;;
27822;SDS011;29019;47.630;8.262;2023-06-24T07:12:51;0.60;;;0.60;;
27822;SDS011;29019;47.630;8.262;2023-06-24T07:16:57;0.60;;;0.60;;
27822;SDS011;29019;47.630;8.262;2023-06-24T07:20:59;0.75;;;0.73;;
27822;SDS011;29019;47.630;8.262;2023-06-24T07:25:01;0.60;;;0.60;;
27822;SDS011;29019;47.630;8.262;2023-06-24T07:29:05;0.52;;;0.52;;
27822;SDS011;29019;47.630;8.262;2023-06-24T07:33:07;0.73;;;0.68;;
27822;SDS011;29019;47.630;8.262;2023-06-24T07:37:08;0.50;;;0.50;;
27822;SDS011;29019;47.630;8.262;2023-06-24T07:41:08;0.60;;;0.60;;
27822;SDS011;29019;47.630;8.262;2023-06-24T07:45:09;0.63;;;0.60;;
27822;SDS011;29019;47.630;8.262;2023-06-24T07:53:11;0.90;;;0.90;;
27822;SDS011;29019;47.630;8.262;2023-06-24T07:57:11;1.23;;;0.93;;
27822;SDS011;29019;47.630;8.262;2023-06-24T08:01:12;0.57;;;0.52;;
27822;SDS011;29019;47.630;8.262;2023-06-24T08:05:13;0.60;;;0.60;;
27822;SDS011;29019;47.630;8.262;2023-06-24T08:09:13;0.90;;;0.70;;
27822;SDS011;29019;47.630;8.262;2023-06-24T08:13:15;0.60;;;0.60;;
27822;SDS011;29019;47.630;8.262;2023-06-24T08:17:16;0.85;;;0.60;;
27822;SDS011;29019;47.630;8.262;2023-06-24T08:21:17;0.60;;;0.60;;
27822;SDS011;29019;47.630;8.262;2023-06-24T08:25:17;0.70;;;0.70;;
27822;SDS011;29019;47.630;8.262;2023-06-24T08:29:18;0.70;;;0.70;;
27822;SDS011;29019;47.630;8.262;2023-06-24T08:33:19;0.70;;;0.70;;
27822;SDS011;29019;47.630;8.262;2023-06-24T08:37:19;0.93;;;0.63;;
27822;SDS011;29019;47.630;8.262;2023-06-24T08:41:20;0.63;;;0.60;;
27822;SDS011;29019;47.630;8.262;2023-06-24T08:45:22;0.68;;;0.50;;
27822;SDS011;29019;47.630;8.262;2023-06-24T08:53:23;1.23;;;0.55;;
27822;SDS011;29019;47.630;8.262;2023-06-24T08:57:26;0.50;;;0.50;;
27822;SDS011;29019;47.630;8.262;2023-06-24T09:01:26;0.70;;;0.70;;
27822;SDS011;29019;47.630;8.262;2023-06-24T09:05:27;0.80;;;0.80;;
27822;SDS011;29019;47.630;8.262;2023-06-24T09:09:28;0.63;;;0.60;;
27822;SDS011;29019;47.630;8.262;2023-06-24T09:13:35;0.57;;;0.57;;
27822;SDS011;29019;47.630;8.262;2023-06-24T09:17:43;0.60;;;0.60;;
27822;SDS011;29019;47.630;8.262;2023-06-24T09:21:46;0.50;;;0.50;;
27822;SDS011;29019;47.630;8.262;2023-06-24T09:25:55;0.70;;;0.60;;
27822;SDS011;29019;47.630;8.262;2023-06-24T09:29:58;0.63;;;0.57;;
27822;SDS011;29019;47.630;8.262;2023-06-24T09:33:59;0.57;;;0.50;;
27822;SDS011;29019;47.630;8.262;2023-06-24T09:38:00;0.70;;;0.60;;
27822;SDS011;29019;47.630;8.262;2023-06-24T09:42:01;0.52;;;0.52;;
27822;SDS011;29019;47.630;8.262;2023-06-24T09:50:04;0.73;;;0.60;;
27822;SDS011;29019;47.630;8.262;2023-06-24T09:54:06;0.73;;;0.70;;
27822;SDS011;29019;47.630;8.262;2023-06-24T09:58:07;0.70;;;0.70;;
27822;SDS011;29019;47.630;8.262;2023-06-24T10:02:08;0.60;;;0.60;;
27822;SDS011;29019;47.630;8.262;2023-06-24T10:06:13;0.65;;;0.65;;
27822;SDS011;29019;47.630;8.262;2023-06-24T10:10:14;0.63;;;0.60;;
27822;SDS011;29019;47.630;8.262;2023-06-24T10:14:15;0.52;;;0.52;;
27822;SDS011;29019;47.630;8.262;2023-06-24T10:18:32;0.70;;;0.70;;
27822;SDS011;29019;47.630;8.262;2023-06-24T10:22:36;0.65;;;0.60;;
27822;SDS011;29019;47.630;8.262;2023-06-24T10:26:37;0.52;;;0.50;;
27822;SDS011;29019;47.630;8.262;2023-06-24T10:30:43;0.73;;;0.68;;
27822;SDS011;29019;47.630;8.262;2023-06-24T10:34:55;0.63;;;0.55;;
27822;SDS011;29019;47.630;8.262;2023-06-24T10:38:57;0.75;;;0.70;;
27822;SDS011;29019;47.630;8.262;2023-06-24T10:42:57;1.50;;;0.50;;
27822;SDS011;29019;47.630;8.262;2023-06-24T10:47:00;0.60;;;0.60;;
27822;SDS011;29019;47.630;8.262;2023-06-24T10:51:01;0.40;;;0.40;;
27822;SDS011;29019;47.630;8.262;2023-06-24T10:55:02;0.63;;;0.63;;
27822;SDS011;29019;47.630;8.262;2023-06-24T10:59:03;1.00;;;0.90;;
27822;SDS011;29019;47.630;8.262;2023-06-24T11:03:22;0.77;;;0.77;;
27822;SDS011;29019;47.630;8.262;2023-06-24T11:07:24;1.02;;;0.60;;
27822;SDS011;29019;47.630;8.262;2023-06-24T11:11:25;1.05;;;0.75;;
27822;SDS011;29019;47.630;8.262;2023-06-24T11:15:26;0.60;;;0.60;;
27822;SDS011;29019;47.630;8.262;2023-06-24T11:19:27;0.60;;;0.60;;
27822;SDS011;29019;47.630;8.262;2023-06-24T11:23:27;0.50;;;0.50;;
27822;SDS011;29019;47.630;8.262;2023-06-24T11:27:29;0.50;;;0.50;;
27822;SDS011;29019;47.630;8.262;2023-06-24T11:31:31;0.50;;;0.50;;
27822;SDS011;29019;47.630;8.262;2023-06-24T11:35:34;0.50;;;0.50;;
27822;SDS011;29019;47.630;8.262;2023-06-24T11:39:36;0.73;;;0.73;;
27822;SDS011;29019;47.630;8.262;2023-06-24T11:43:37;0.93;;;0.85;;
27822;SDS011;29019;47.630;8.262;2023-06-24T11:47:38;0.60;;;0.60;;
27822;SDS011;29019;47.630;8.262;2023-06-24T11:51:45;0.63;;;0.63;;
27822;SDS011;29019;47.630;8.262;2023-06-24T11:55:51;0.63;;;0.63;;
27822;SDS011;29019;47.630;8.262;2023-06-24T11:59:52;0.65;;;0.65;;
27822;SDS011;29019;47.630;8.262;2023-06-24T12:03:52;0.60;;;0.50;;
27822;SDS011;29019;47.630;8.262;2023-06-24T12:07:54;0.85;;;0.82;;
27822;SDS011;29019;47.630;8.262;2023-06-24T12:11:57;0.57;;;0.57;;
27822;SDS011;29019;47.630;8.262;2023-06-24T12:15:58;0.70;;;0.70;;
27822;SDS011;29019;47.630;8.262;2023-06-24T12:19:59;0.75;;;0.68;;
27822;SDS011;29019;47.630;8.262;2023-06-24T12:24:00;0.70;;;0.68;;
27822;SDS011;29019;47.630;8.262;2023-06-24T12:28:01;0.90;;;0.70;;
27822;SDS011;29019;47.630;8.262;2023-06-24T12:32:02;0.65;;;0.65;;
27822;SDS011;29019;47.630;8.262;2023-06-24T12:36:03;0.75;;;0.70;;
27822;SDS011;29019;47.630;8.262;2023-06-24T12:44:05;0.63;;;0.63;;
27822;SDS011;29019;47.630;8.262;2023-06-24T12:48:05;0.50;;;0.50;;
27822;SDS011;29019;47.630;8.262;2023-06-24T12:52:06;0.80;;;0.80;;
27822;SDS011;29019;47.630;8.262;2023-06-24T12:56:07;0.95;;;0.70;;
27822;SDS011;29019;47.630;8.262;2023-06-24T13:00:09;0.98;;;0.57;;
27822;SDS011;29019;47.630;8.262;2023-06-24T13:04:11;0.73;;;0.73;;
27822;SDS011;29019;47.630;8.262;2023-06-24T13:12:12;0.57;;;0.57;;
27822;SDS011;29019;47.630;8.262;2023-06-24T13:16:13;0.80;;;0.80;;
27822;SDS011;29019;47.630;8.262;2023-06-24T13:20:13;0.60;;;0.60;;
27822;SDS011;29019;47.630;8.262;2023-06-24T13:24:14;0.70;;;0.55;;
27822;SDS011;29019;47.630;8.262;2023-06-24T13:28:15;0.70;;;0.68;;
27822;SDS011;29019;47.630;8.262;2023-06-24T13:32:15;0.88;;;0.60;;
27822;SDS011;29019;47.630;8.262;2023-06-24T13:36:28;0.75;;;0.70;;
27822;SDS011;29019;47.630;8.262;2023-06-24T13:40:31;0.60;;;0.60;;
27822;SDS011;29019;47.630;8.262;2023-06-24T13:44:31;0.82;;;0.60;;
27822;SDS011;29019;47.630;8.262;2023-06-24T13:48:32;0.70;;;0.70;;
27822;SDS011;29019;47.630;8.262;2023-06-24T13:52:33;0.90;;;0.82;;
27822;SDS011;29019;47.630;8.262;2023-06-24T13:56:33;0.50;;;0.50;;
27822;SDS011;29019;47.630;8.262;2023-06-24T14:00:34;0.63;;;0.63;;
27822;SDS011;29019;47.630;8.262;2023-06-24T14:04:35;0.50;;;0.50;;
27822;SDS011;29019;47.630;8.262;2023-06-24T14:08:35;0.40;;;0.40;;
27822;SDS011;29019;47.630;8.262;2023-06-24T14:12:36;0.57;;;0.57;;
27822;SDS011;29019;47.630;8.262;2023-06-24T14:16:37;0.50;;;0.50;;
27822;SDS011;29019;47.630;8.262;2023-06-24T14:20:38;0.60;;;0.60;;
27822;SDS011;29019;47.630;8.262;2023-06-24T14:24:38;0.85;;;0.80;;
27822;SDS011;29019;47.630;8.262;2023-06-24T14:28:39;1.10;;;0.70;;
27822;SDS011;29019;47.630;8.262;2023-06-24T14:32:40;0.90;;;0.88;;
27822;SDS011;29019;47.630;8.262;2023-06-24T14:36:40;0.80;;;0.80;;
27822;SDS011;29019;47.630;8.262;2023-06-24T14:40:41;0.75;;;0.60;;
27822;SDS011;29019;47.630;8.262;2023-06-24T14:44:42;0.60;;;0.57;;
27822;SDS011;29019;47.630;8.262;2023-06-24T14:48:42;0.60;;;0.60;;
27822;SDS011;29019;47.630;8.262;2023-06-24T14:52:43;0.95;;;0.65;;
27822;SDS011;29019;47.630;8.262;2023-06-24T14:56:44;0.70;;;0.65;;
27822;SDS011;29019;47.630;8.262;2023-06-24T15:00:45;1.10;;;0.75;;
27822;SDS011;29019;47.630;8.262;2023-06-24T15:04:46;0.68;;;0.68;;
27822;SDS011;29019;47.630;8.262;2023-06-24T15:08:47;0.60;;;0.60;;
27822;SDS011;29019;47.630;8.262;2023-06-24T15:12:47;0.75;;;0.75;;
27822;SDS011;29019;47.630;8.262;2023-06-24T15:16:48;0.50;;;0.50;;
27822;SDS011;29019;47.630;8.262;2023-06-24T15:20:50;0.55;;;0.55;;
27822;SDS011;29019;47.630;8.262;2023-06-24T15:24:51;0.77;;;0.77;;
27822;SDS011;29019;47.630;8.262;2023-06-24T15:28:52;0.60;;;0.60;;
27822;SDS011;29019;47.630;8.262;2023-06-24T15:32:53;0.70;;;0.68;;
27822;SDS011;29019;47.630;8.262;2023-06-24T15:36:54;0.70;;;0.68;;
27822;SDS011;29019;47.630;8.262;2023-06-24T15:40:55;1.02;;;0.77;;
27822;SDS011;29019;47.630;8.262;2023-06-24T15:44:55;0.82;;;0.70;;
27822;SDS011;29019;47.630;8.262;2023-06-24T15:48:56;1.02;;;0.73;;
27822;SDS011;29019;47.630;8.262;2023-06-24T15:52:57;0.70;;;0.70;;
27822;SDS011;29019;47.630;8.262;2023-06-24T15:56:58;0.55;;;0.55;;
27822;SDS011;29019;47.630;8.262;2023-06-24T16:00:58;0.82;;;0.80;;
27822;SDS011;29019;47.630;8.262;2023-06-24T16:04:59;0.63;;;0.63;;
27822;SDS011;29019;47.630;8.262;2023-06-24T16:09:05;0.70;;;0.60;;
27822;SDS011;29019;47.630;8.262;2023-06-24T16:13:05;0.70;;;0.70;;
27822;SDS011;29019;47.630;8.262;2023-06-24T16:17:06;0.77;;;0.77;;
27822;SDS011;29019;47.630;8.262;2023-06-24T16:21:06;0.60;;;0.60;;
27822;SDS011;29019;47.630;8.262;2023-06-24T16:25:07;0.90;;;0.77;;
27822;SDS011;29019;47.630;8.262;2023-06-24T16:29:08;0.82;;;0.80;;
27822;SDS011;29019;47.630;8.262;2023-06-24T16:33:09;0.80;;;0.77;;
27822;SDS011;29019;47.630;8.262;2023-06-24T16:37:09;0.75;;;0.68;;
27822;SDS011;29019;47.630;8.262;2023-06-24T16:41:10;0.55;;;0.55;;
27822;SDS011;29019;47.630;8.262;2023-06-24T16:45:11;2.80;;;1.70;;
27822;SDS011;29019;47.630;8.262;2023-06-24T16:49:12;4.10;;;2.30;;
27822;SDS011;29019;47.630;8.262;2023-06-24T16:53:13;4.35;;;2.33;;
27822;SDS011;29019;47.630;8.262;2023-06-24T16:57:13;5.20;;;3.13;;
27822;SDS011;29019;47.630;8.262;2023-06-24T17:01:14;3.60;;;2.85;;
27822;SDS011;29019;47.630;8.262;2023-06-24T17:05:15;5.85;;;3.30;;
27822;SDS011;29019;47.630;8.262;2023-06-24T17:09:15;7.85;;;4.13;;
27822;SDS011;29019;47.630;8.262;2023-06-24T17:13:16;6.35;;;3.90;;
27822;SDS011;29019;47.630;8.262;2023-06-24T17:17:17;9.95;;;3.90;;
27822;SDS011;29019;47.630;8.262;2023-06-24T17:21:17;5.97;;;4.03;;
27822;SDS011;29019;47.630;8.262;2023-06-24T17:25:18;6.90;;;4.50;;
27822;SDS011;29019;47.630;8.262;2023-06-24T17:29:18;8.40;;;5.93;;
27822;SDS011;29019;47.630;8.262;2023-06-24T17:33:19;7.88;;;4.72;;
27822;SDS011;29019;47.630;8.262;2023-06-24T17:37:20;8.52;;;5.45;;
27822;SDS011;29019;47.630;8.262;2023-06-24T17:41:21;7.30;;;4.97;;
27822;SDS011;29019;47.630;8.262;2023-06-24T17:45:23;9.10;;;4.75;;
27822;SDS011;29019;47.630;8.262;2023-06-24T17:49:23;8.93;;;5.40;;
27822;SDS011;29019;47.630;8.262;2023-06-24T17:53:24;6.78;;;5.15;;
27822;SDS011;29019;47.630;8.262;2023-06-24T17:57:25;8.20;;;4.95;;
27822;SDS011;29019;47.630;8.262;2023-06-24T18:01:25;10.43;;;6.30;;
27822;SDS011;29019;47.630;8.262;2023-06-24T18:05:29;7.18;;;4.75;;
27822;SDS011;29019;47.630;8.262;2023-06-24T18:09:29;7.20;;;4.40;;
27822;SDS011;29019;47.630;8.262;2023-06-24T18:13:30;7.20;;;4.95;;
27822;SDS011;29019;47.630;8.262;2023-06-24T18:17:30;8.48;;;4.68;;
27822;SDS011;29019;47.630;8.262;2023-06-24T18:21:31;7.65;;;4.90;;
27822;SDS011;29019;47.630;8.262;2023-06-24T18:25:32;14.52;;;4.60;;
27822;SDS011;29019;47.630;8.262;2023-06-24T18:29:32;6.35;;;4.20;;
27822;SDS011;29019;47.630;8.262;2023-06-24T18:33:33;6.93;;;4.82;;
27822;SDS011;29019;47.630;8.262;2023-06-24T18:37:34;5.40;;;4.07;;
27822;SDS011;29019;47.630;8.262;2023-06-24T18:45:36;6.73;;;4.23;;
27822;SDS011;29019;47.630;8.262;2023-06-24T18:49:37;7.20;;;5.18;;
27822;SDS011;29019;47.630;8.262;2023-06-24T18:53:37;6.95;;;4.05;;
27822;SDS011;29019;47.630;8.262;2023-06-24T18:57:38;9.05;;;5.35;;
27822;SDS011;29019;47.630;8.262;2023-06-24T19:01:39;9.10;;;3.78;;
27822;SDS011;29019;47.630;8.262;2023-06-24T19:05:39;7.20;;;4.22;;
27822;SDS011;29019;47.630;8.262;2023-06-24T19:09:40;5.93;;;4.07;;
27822;SDS011;29019;47.630;8.262;2023-06-24T19:13:40;8.55;;;4.28;;
27822;SDS011;29019;47.630;8.262;2023-06-24T19:17:41;5.90;;;3.75;;
27822;SDS011;29019;47.630;8.262;2023-06-24T19:21:42;5.63;;;3.78;;
27822;SDS011;29019;47.630;8.262;2023-06-24T19:25:42;5.93;;;4.40;;
27822;SDS011;29019;47.630;8.262;2023-06-24T19:29:43;7.50;;;4.00;;
27822;SDS011;29019;47.630;8.262;2023-06-24T19:33:44;4.63;;;3.75;;
27822;SDS011;29019;47.630;8.262;2023-06-24T19:37:45;5.72;;;3.92;;
27822;SDS011;29019;47.630;8.262;2023-06-24T19:41:46;8.57;;;4.32;;
27822;SDS011;29019;47.630;8.262;2023-06-24T19:45:47;5.82;;;3.70;;
27822;SDS011;29019;47.630;8.262;2023-06-24T19:49:50;6.85;;;3.67;;
27822;SDS011;29019;47.630;8.262;2023-06-24T19:53:52;5.72;;;3.50;;
27822;SDS011;29019;47.630;8.262;2023-06-24T19:57:53;5.35;;;4.03;;
27822;SDS011;29019;47.630;8.262;2023-06-24T20:01:54;5.32;;;3.60;;
27822;SDS011;29019;47.630;8.262;2023-06-24T20:05:54;5.32;;;3.58;;
27822;SDS011;29019;47.630;8.262;2023-06-24T20:09:55;6.30;;;3.85;;
27822;SDS011;29019;47.630;8.262;2023-06-24T20:13:55;8.95;;;4.03;;
27822;SDS011;29019;47.630;8.262;2023-06-24T20:17:58;8.77;;;3.70;;
27822;SDS011;29019;47.630;8.262;2023-06-24T20:21:59;4.32;;;3.58;;
27822;SDS011;29019;47.630;8.262;2023-06-24T20:26:00;6.15;;;3.70;;
27822;SDS011;29019;47.630;8.262;2023-06-24T20:30:00;5.13;;;2.97;;
27822;SDS011;29019;47.630;8.262;2023-06-24T20:34:01;5.63;;;3.80;;
27822;SDS011;29019;47.630;8.262;2023-06-24T20:38:02;4.47;;;3.40;;
27822;SDS011;29019;47.630;8.262;2023-06-24T20:42:02;6.35;;;3.60;;
27822;SDS011;29019;47.630;8.262;2023-06-24T20:50:04;4.37;;;3.03;;
27822;SDS011;29019;47.630;8.262;2023-06-24T20:54:06;4.63;;;3.40;;
27822;SDS011;29019;47.630;8.262;2023-06-24T20:58:06;11.05;;;3.92;;
27822;SDS011;29019;47.630;8.262;2023-06-24T21:02:07;6.93;;;4.18;;
27822;SDS011;29019;47.630;8.262;2023-06-24T21:06:08;7.03;;;4.10;;
27822;SDS011;29019;47.630;8.262;2023-06-24T21:10:08;8.48;;;3.72;;
27822;SDS011;29019;47.630;8.262;2023-06-24T21:18:10;5.43;;;3.40;;
27822;SDS011;29019;47.630;8.262;2023-06-24T21:22:12;5.35;;;3.30;;
27822;SDS011;29019;47.630;8.262;2023-06-24T21:26:12;4.95;;;2.83;;
27822;SDS011;29019;47.630;8.262;2023-06-24T21:30:13;10.48;;;3.83;;
27822;SDS011;29019;47.630;8.262;2023-06-24T21:34:14;5.53;;;3.33;;
27822;SDS011;29019;47.630;8.262;2023-06-24T21:38:14;6.50;;;3.38;;
27822;SDS011;29019;47.630;8.262;2023-06-24T21:42:15;5.40;;;3.25;;
27822;SDS011;29019;47.630;8.262;2023-06-24T21:46:16;4.65;;;3.20;;
27822;SDS011;29019;47.630;8.262;2023-06-24T21:50:16;4.50;;;3.25;;
27822;SDS011;29019;47.630;8.262;2023-06-24T21:54:17;5.15;;;3.67;;
27822;SDS011;29019;47.630;8.262;2023-06-24T21:58:18;4.75;;;3.30;;
27822;SDS011;29019;47.630;8.262;2023-06-24T22:02:18;6.43;;;3.20;;
27822;SDS011;29019;47.630;8.262;2023-06-24T22:06:19;5.78;;;3.00;;
27822;SDS011;29019;47.630;8.262;2023-06-24T22:10:20;7.82;;;3.53;;
27822;SDS011;29019;47.630;8.262;2023-06-24T22:14:20;5.50;;;3.25;;
27822;SDS011;29019;47.630;8.262;2023-06-24T22:18:21;4.10;;;3.10;;
27822;SDS011;29019;47.630;8.262;2023-06-24T22:22:22;4.20;;;3.10;;
27822;SDS011;29019;47.630;8.262;2023-06-24T22:30:23;4.20;;;3.13;;
27822;SDS011;29019;47.630;8.262;2023-06-24T22:34:24;5.50;;;3.15;;
27822;SDS011;29019;47.630;8.262;2023-06-24T22:38:25;4.38;;;3.00;;
27822;SDS011;29019;47.630;8.262;2023-06-24T22:42:25;4.30;;;2.67;;
27822;SDS011;29019;47.630;8.262;2023-06-24T22:50:27;4.07;;;3.17;;
27822;SDS011;29019;47.630;8.262;2023-06-24T22:54:30;4.18;;;2.85;;
27822;SDS011;29019;47.630;8.262;2023-06-24T22:58:30;4.68;;;3.00;;
27822;SDS011;29019;47.630;8.262;2023-06-24T23:02:31;5.18;;;3.45;;
27822;SDS011;29019;47.630;8.262;2023-06-24T23:10:33;5.18;;;3.35;;
27822;SDS011;29019;47.630;8.262;2023-06-24T23:14:34;5.15;;;2.88;;
27822;SDS011;29019;47.630;8.262;2023-06-24T23:18:35;5.10;;;3.13;;
27822;SDS011;29019;47.630;8.262;2023-06-24T23:22:36;4.50;;;2.95;;
27822;SDS011;29019;47.630;8.262;2023-06-24T23:26:37;6.57;;;3.15;;
27822;SDS011;29019;47.630;8.262;2023-06-24T23:30:46;4.20;;;2.78;;
27822;SDS011;29019;47.630;8.262;2023-06-24T23:34:47;4.53;;;2.70;;
27822;SDS011;29019;47.630;8.262;2023-06-24T23:42:49;3.93;;;2.70;;
27822;SDS011;29019;47.630;8.262;2023-06-24T23:46:50;3.90;;;2.75;;
27822;SDS011;29019;47.630;8.262;2023-06-24T23:50:51;4.03;;;2.70;;
27822;SDS011;29019;47.630;8.262;2023-06-24T23:54:51;2.90;;;2.30;;
27822;SDS011;29019;47.630;8.262;2023-06-24T23:58:52;4.25;;;2.72;;
